Time;durP1;ratioP1;P1;durP2;ratioP2;P2;SDS_P1;SDS_P2;PMS_P1;PMS_P2;Temp;Humidity;BMP_temperature;BMP_pressure;BME280_temperature;BME280_humidity;BME280_pressure;Samples;Min_cycle;Max_cycle;Signal;HPM_P1;HPM_P2
2021/05/23 00:00:22;;;;;;;1.70;0.43;;;;;;;;;;4942027;29;20545;-78
2021/05/23 00:02:48;;;;;;;0.90;0.45;;;;;;;;;;4942056;29;20031;-78
2021/05/23 00:05:15;;;;;;;0.77;0.40;;;;;;;;;;4926252;29;20158;-78
2021/05/23 00:07:50;;;;;;;1.35;0.40;;;;;;;;;;4942293;29;20028;-78
2021/05/23 00:10:16;;;;;;;1.27;0.52;;;;;;;;;;4941821;29;20030;-78
2021/05/23 00:12:41;;;;;;;0.77;0.50;;;;;;;;;;4942110;29;20506;-78
2021/05/23 00:15:07;;;;;;;0.60;0.40;;;;;;;;;;4925699;29;20031;-78
2021/05/23 00:17:33;;;;;;;0.63;0.40;;;;;;;;;;4925913;29;20525;-78
2021/05/23 00:19:58;;;;;;;0.90;0.40;;;;;;;;;;4926000;29;20366;-78
2021/05/23 00:22:23;;;;;;;1.10;0.50;;;;;;;;;;4925829;29;20066;-78
2021/05/23 00:24:49;;;;;;;0.90;0.30;;;;;;;;;;4941781;29;20055;-78
2021/05/23 00:27:14;;;;;;;0.63;0.40;;;;;;;;;;4958923;29;20038;-78
2021/05/23 00:29:39;;;;;;;0.77;0.40;;;;;;;;;;4958546;29;20055;-78
2021/05/23 00:32:06;;;;;;;1.80;0.43;;;;;;;;;;4941876;29;20062;-78
2021/05/23 00:34:31;;;;;;;;;;;;;;;;;;4926029;29;20015;-78
2021/05/23 00:36:56;;;;;;;0.90;0.40;;;;;;;;;;4941697;29;19964;-78
2021/05/23 00:39:22;;;;;;;1.03;0.40;;;;;;;;;;4941556;29;20031;-78
2021/05/23 00:41:47;;;;;;;1.17;0.60;;;;;;;;;;4941401;28;20086;-78
2021/05/23 00:44:12;;;;;;;0.80;0.37;;;;;;;;;;4941295;29;20043;-77
2021/05/23 00:46:38;;;;;;;0.90;0.30;;;;;;;;;;4958255;28;20117;-79
2021/05/23 00:49:03;;;;;;;1.07;0.33;;;;;;;;;;4941553;29;20031;-78
2021/05/23 00:51:28;;;;;;;1.50;0.57;;;;;;;;;;4957316;29;20023;-78
2021/05/23 00:53:54;;;;;;;1.00;0.47;;;;;;;;;;4924822;29;20029;-78
2021/05/23 00:56:20;;;;;;;0.70;0.40;;;;;;;;;;4941128;29;20442;-78
2021/05/23 00:58:46;;;;;;;0.85;0.57;;;;;;;;;;4941522;29;20067;-78
2021/05/23 01:01:13;;;;;;;1.00;0.40;;;;;;;;;;4941064;29;20027;-78
2021/05/23 01:03:52;;;;;;;0.82;0.40;;;;;;;;;;4940560;29;20094;-78
2021/05/23 01:06:18;;;;;;;1.08;0.40;;;;;;;;;;4925437;29;20150;-78
2021/05/23 01:08:43;;;;;;;1.13;0.47;;;;;;;;;;4957438;29;20088;-78
2021/05/23 01:11:35;;;;;;;0.80;0.40;;;;;;;;;;4925721;29;20055;-78
2021/05/23 01:14:00;;;;;;;1.33;0.47;;;;;;;;;;4940786;29;20095;-78
2021/05/23 01:16:36;;;;;;;0.63;0.37;;;;;;;;;;4940864;29;20482;-78
2021/05/23 01:19:15;;;;;;;0.90;0.40;;;;;;;;;;4940871;29;20478;-78
2021/05/23 01:21:42;;;;;;;0.75;0.40;;;;;;;;;;4956978;29;20031;-78
2021/05/23 01:24:17;;;;;;;0.60;0.30;;;;;;;;;;4957581;28;20125;-78
2021/05/23 01:26:48;;;;;;;0.70;0.30;;;;;;;;;;4925938;29;20158;-78
2021/05/23 01:29:13;;;;;;;0.55;0.30;;;;;;;;;;4957706;29;20047;-78
2021/05/23 01:31:39;;;;;;;0.63;0.40;;;;;;;;;;4924867;28;20067;-78
2021/05/23 01:34:04;;;;;;;1.23;0.40;;;;;;;;;;4924612;29;20028;-78
2021/05/23 01:36:38;;;;;;;1.00;0.40;;;;;;;;;;4940928;29;20106;-78
2021/05/23 01:39:06;;;;;;;1.10;0.50;;;;;;;;;;4940611;29;20140;-78
2021/05/23 01:41:32;;;;;;;0.57;0.40;;;;;;;;;;4925010;29;20027;-78
2021/05/23 01:43:58;;;;;;;1.20;0.40;;;;;;;;;;4940183;29;20023;-78
2021/05/23 01:46:23;;;;;;;0.68;0.40;;;;;;;;;;4924847;29;20503;-81
2021/05/23 01:48:48;;;;;;;1.27;0.50;;;;;;;;;;4924523;29;20039;-78
2021/05/23 01:51:13;;;;;;;0.60;0.30;;;;;;;;;;4940849;29;20063;-78
2021/05/23 01:53:41;;;;;;;1.30;0.43;;;;;;;;;;4924998;29;20146;-78
2021/05/23 01:56:06;;;;;;;0.98;0.43;;;;;;;;;;4924921;29;20066;-78
2021/05/23 01:58:32;;;;;;;0.73;0.33;;;;;;;;;;4960572;29;20037;-78
2021/05/23 02:00:57;;;;;;;0.60;0.37;;;;;;;;;;4944612;29;20023;-78
2021/05/23 02:03:23;;;;;;;0.30;0.20;;;;;;;;;;4959815;28;20078;-78
2021/05/23 02:05:53;;;;;;;1.35;0.30;;;;;;;;;;4944079;29;20047;-78
2021/05/23 02:08:20;;;;;;;0.65;0.35;;;;;;;;;;4943884;29;20058;-78
2021/05/23 02:10:49;;;;;;;0.80;0.50;;;;;;;;;;4940692;29;20034;-78
2021/05/23 02:13:15;;;;;;;1.20;0.40;;;;;;;;;;4943826;29;20487;-78
2021/05/23 02:15:40;;;;;;;1.30;0.40;;;;;;;;;;4943891;29;20034;-78
2021/05/23 02:18:06;;;;;;;0.90;0.50;;;;;;;;;;4944536;29;20367;-78
2021/05/23 02:20:31;;;;;;;1.23;0.40;;;;;;;;;;4960269;29;20371;-78
2021/05/23 02:23:00;;;;;;;1.07;0.50;;;;;;;;;;4961154;28;20058;-78
2021/05/23 02:25:27;;;;;;;1.83;0.40;;;;;;;;;;4943943;29;20027;-78
2021/05/23 02:27:53;;;;;;;;;;;;;;;;;;4943972;29;20106;-78
2021/05/23 02:30:29;;;;;;;1.38;0.40;;;;;;;;;;4943282;29;20019;-78
2021/05/23 02:32:55;;;;;;;0.38;0.30;;;;;;;;;;4928499;29;20039;-78
2021/05/23 02:35:21;;;;;;;0.63;0.40;;;;;;;;;;4943870;29;20538;-79
2021/05/23 02:37:47;;;;;;;0.40;0.30;;;;;;;;;;4943766;29;20086;-78
2021/05/23 02:40:14;;;;;;;0.70;0.30;;;;;;;;;;4927725;29;20031;-78
2021/05/23 02:42:40;;;;;;;1.02;0.30;;;;;;;;;;4939723;29;20035;-78
2021/05/23 02:45:06;;;;;;;1.13;0.40;;;;;;;;;;4927845;29;20039;-78
2021/05/23 02:47:32;;;;;;;1.17;0.43;;;;;;;;;;4943871;29;20039;-78
2021/05/23 02:49:57;;;;;;;0.50;0.30;;;;;;;;;;4943637;29;20548;-77
2021/05/23 02:52:22;;;;;;;0.70;0.40;;;;;;;;;;4911579;29;20027;-78
2021/05/23 02:54:49;;;;;;;0.77;0.40;;;;;;;;;;4943815;29;20054;-78
2021/05/23 02:57:14;;;;;;;;;;;;;;;;;;4944024;29;20090;-78
2021/05/23 02:59:40;;;;;;;1.13;0.33;;;;;;;;;;4927819;29;19937;-78
2021/05/23 03:02:05;;;;;;;0.97;0.40;;;;;;;;;;4927323;29;20497;-78
2021/05/23 03:04:30;;;;;;;0.77;0.30;;;;;;;;;;4943321;29;20427;-78
2021/05/23 03:06:56;;;;;;;1.07;0.50;;;;;;;;;;4942792;29;20393;-78
2021/05/23 03:09:21;;;;;;;0.43;0.30;;;;;;;;;;4941973;29;20538;-78
2021/05/23 03:11:47;;;;;;;0.77;0.40;;;;;;;;;;4943505;28;20111;-78
2021/05/23 03:14:13;;;;;;;0.87;0.40;;;;;;;;;;4943152;29;20521;-78
2021/05/23 03:16:39;;;;;;;1.05;0.30;;;;;;;;;;4958860;28;20538;-78
2021/05/23 03:19:04;;;;;;;0.57;0.40;;;;;;;;;;4942657;29;20035;-78
2021/05/23 03:21:30;;;;;;;0.93;0.33;;;;;;;;;;4943420;29;20082;-78
2021/05/23 03:23:55;;;;;;;0.63;0.40;;;;;;;;;;4926977;29;20097;-78
2021/05/23 03:26:20;;;;;;;0.53;0.40;;;;;;;;;;4942915;29;20055;-78
2021/05/23 03:28:46;;;;;;;0.50;0.30;;;;;;;;;;4942978;29;20123;-78
2021/05/23 03:31:11;;;;;;;1.77;0.40;;;;;;;;;;4942964;29;20066;-77
2021/05/23 03:33:36;;;;;;;0.87;0.40;;;;;;;;;;4958654;29;20055;-77
2021/05/23 03:36:02;;;;;;;0.90;0.40;;;;;;;;;;4958708;29;20050;-78
2021/05/23 03:38:27;;;;;;;0.77;0.40;;;;;;;;;;4942627;29;20432;-77
2021/05/23 03:40:52;;;;;;;1.00;0.50;;;;;;;;;;4958701;29;20063;-77
2021/05/23 03:43:18;;;;;;;0.70;0.40;;;;;;;;;;4958343;28;20027;-78
2021/05/23 03:45:43;;;;;;;0.47;0.30;;;;;;;;;;4942900;29;20082;-78
2021/05/23 03:48:09;;;;;;;1.10;0.30;;;;;;;;;;4942547;29;20027;-78
2021/05/23 03:50:34;;;;;;;0.90;0.40;;;;;;;;;;4958849;29;20029;-78
2021/05/23 03:52:59;;;;;;;0.90;0.37;;;;;;;;;;4942743;29;20166;-77
2021/05/23 03:55:25;;;;;;;0.73;0.40;;;;;;;;;;4942557;29;20321;-78
2021/05/23 03:57:51;;;;;;;0.47;0.35;;;;;;;;;;4958773;28;20027;-77
2021/05/23 04:00:17;;;;;;;0.67;0.33;;;;;;;;;;4942305;29;20027;-77
2021/05/23 04:02:47;;;;;;;0.50;0.30;;;;;;;;;;4942225;29;20565;-78
2021/05/23 04:05:13;;;;;;;0.98;0.40;;;;;;;;;;4926571;29;20032;-78
2021/05/23 04:07:38;;;;;;;0.83;0.40;;;;;;;;;;4926498;29;20031;-77
2021/05/23 04:10:05;;;;;;;0.40;0.27;;;;;;;;;;4942209;29;20098;-77
2021/05/23 04:12:35;;;;;;;0.63;0.20;;;;;;;;;;4942543;29;20031;-77
2021/05/23 04:15:00;;;;;;;0.38;0.22;;;;;;;;;;4926765;29;20026;-77
2021/05/23 04:17:27;;;;;;;0.90;0.40;;;;;;;;;;4959424;29;20031;-79
2021/05/23 04:19:52;;;;;;;0.82;0.40;;;;;;;;;;4925364;29;20134;-78
2021/05/23 04:22:17;;;;;;;0.77;0.40;;;;;;;;;;4925625;29;20503;-77
2021/05/23 04:24:43;;;;;;;0.83;0.30;;;;;;;;;;4941748;29;20427;-77
2021/05/23 04:27:08;;;;;;;0.60;0.33;;;;;;;;;;4941660;29;20055;-78
2021/05/23 04:29:34;;;;;;;1.00;0.30;;;;;;;;;;4925626;29;20475;-78
2021/05/23 04:32:01;;;;;;;0.80;0.40;;;;;;;;;;4940971;29;20467;-78
2021/05/23 04:34:26;;;;;;;0.80;0.30;;;;;;;;;;4926069;29;20019;-78
2021/05/23 04:36:52;;;;;;;0.50;0.30;;;;;;;;;;4941173;29;20050;-78
2021/05/23 04:39:17;;;;;;;0.73;0.40;;;;;;;;;;4925583;29;20030;-78
2021/05/23 04:41:42;;;;;;;1.17;0.40;;;;;;;;;;4940907;28;20055;-79
2021/05/23 04:44:08;;;;;;;0.50;0.30;;;;;;;;;;4941401;29;20055;-78
2021/05/23 04:46:34;;;;;;;1.30;0.30;;;;;;;;;;4941416;29;20525;-78
2021/05/23 04:48:59;;;;;;;0.50;0.30;;;;;;;;;;4925193;29;20126;-78
2021/05/23 04:51:25;;;;;;;0.93;0.40;;;;;;;;;;4941099;29;20070;-77
2021/05/23 04:53:50;;;;;;;0.40;0.30;;;;;;;;;;4941595;29;20030;-78
2021/05/23 04:56:15;;;;;;;1.00;0.50;;;;;;;;;;4925812;29;20071;-78
2021/05/23 04:58:41;;;;;;;0.60;0.37;;;;;;;;;;4925495;29;20035;-78
2021/05/23 05:01:06;;;;;;;0.50;0.30;;;;;;;;;;4941186;29;20052;-77
2021/05/23 05:03:31;;;;;;;0.83;0.30;;;;;;;;;;4941514;29;20058;-78
2021/05/23 05:05:57;;;;;;;0.37;0.20;;;;;;;;;;4982435;23;21639;-74
2021/05/23 05:08:22;;;;;;;1.00;0.40;;;;;;;;;;4976788;28;20441;-74
2021/05/23 05:10:47;;;;;;;0.57;0.30;;;;;;;;;;4964906;28;20035;-74
2021/05/23 05:13:13;;;;;;;0.50;0.30;;;;;;;;;;4954521;28;20069;-74
2021/05/23 05:15:38;;;;;;;0.97;0.30;;;;;;;;;;4960354;28;20700;-74
2021/05/23 05:18:04;;;;;;;0.70;0.30;;;;;;;;;;4960388;28;20117;-74
2021/05/23 05:20:29;;;;;;;0.80;0.40;;;;;;;;;;4976225;28;20040;-75
2021/05/23 05:22:55;;;;;;;1.13;0.40;;;;;;;;;;4960097;28;20026;-74
2021/05/23 05:25:20;;;;;;;0.70;0.30;;;;;;;;;;4975959;28;20030;-74
2021/05/23 05:27:45;;;;;;;0.43;0.30;;;;;;;;;;4976618;28;20443;-74
2021/05/23 05:30:11;;;;;;;0.27;0.20;;;;;;;;;;4976077;28;20445;-74
2021/05/23 05:32:36;;;;;;;0.70;0.30;;;;;;;;;;4975888;28;20029;-74
2021/05/23 05:35:02;;;;;;;0.60;0.37;;;;;;;;;;4976042;28;20038;-74
2021/05/23 05:37:28;;;;;;;0.32;0.30;;;;;;;;;;4976000;28;20105;-76
2021/05/23 05:39:53;;;;;;;0.30;0.20;;;;;;;;;;4960391;28;20459;-75
2021/05/23 05:42:19;;;;;;;0.47;0.23;;;;;;;;;;4976019;28;20065;-75
2021/05/23 05:44:45;;;;;;;0.65;0.30;;;;;;;;;;4960162;28;20034;-75
2021/05/23 05:47:10;;;;;;;0.30;0.23;;;;;;;;;;4959621;28;20061;-74
2021/05/23 05:49:36;;;;;;;1.07;0.37;;;;;;;;;;4976157;28;20061;-76
2021/05/23 05:52:06;;;;;;;1.52;0.40;;;;;;;;;;4976387;28;20044;-75
2021/05/23 05:54:32;;;;;;;0.63;0.28;;;;;;;;;;4976242;28;20115;-75
2021/05/23 05:56:57;;;;;;;1.03;0.47;;;;;;;;;;4975867;28;20038;-75
2021/05/23 05:59:23;;;;;;;0.33;0.30;;;;;;;;;;4975849;28;20049;-75
2021/05/23 06:01:48;;;;;;;0.40;0.30;;;;;;;;;;4959778;28;20072;-76
2021/05/23 06:04:13;;;;;;;0.67;0.40;;;;;;;;;;4975749;28;20058;-76
2021/05/23 06:06:39;;;;;;;0.43;0.27;;;;;;;;;;4959553;28;20073;-75
2021/05/23 06:09:04;;;;;;;0.50;0.30;;;;;;;;;;4975950;28;20030;-76
2021/05/23 06:11:30;;;;;;;0.70;0.30;;;;;;;;;;4975737;28;20436;-75
2021/05/23 06:13:55;;;;;;;0.73;0.30;;;;;;;;;;4976109;28;20058;-75
2021/05/23 06:16:20;;;;;;;0.30;0.20;;;;;;;;;;4975732;28;20065;-75
2021/05/23 06:18:46;;;;;;;0.60;0.30;;;;;;;;;;4959740;28;20113;-75
2021/05/23 06:21:11;;;;;;;0.40;0.27;;;;;;;;;;4991746;28;20430;-75
2021/05/23 06:23:37;;;;;;;0.63;0.30;;;;;;;;;;4958842;28;20042;-76
2021/05/23 06:26:02;;;;;;;0.83;0.40;;;;;;;;;;4993239;28;20062;-75
2021/05/23 06:28:28;;;;;;;0.40;0.20;;;;;;;;;;4991958;28;20030;-75
2021/05/23 06:30:53;;;;;;;0.40;0.30;;;;;;;;;;4959459;28;20091;-75
2021/05/23 06:33:18;;;;;;;0.30;0.20;;;;;;;;;;4975694;28;20187;-75
2021/05/23 06:35:44;;;;;;;0.50;0.30;;;;;;;;;;4975703;28;20061;-76
2021/05/23 06:38:09;;;;;;;0.30;0.20;;;;;;;;;;4992096;28;20426;-75
2021/05/23 06:40:34;;;;;;;1.03;0.30;;;;;;;;;;4975615;28;20073;-75
2021/05/23 06:43:00;;;;;;;0.60;0.33;;;;;;;;;;4975594;28;20065;-75
2021/05/23 06:45:25;;;;;;;0.60;0.27;;;;;;;;;;4961728;28;20053;-76
2021/05/23 06:47:50;;;;;;;0.47;0.30;;;;;;;;;;4978893;28;20482;-75
2021/05/23 06:50:16;;;;;;;0.50;0.30;;;;;;;;;;4969343;28;20030;-75
2021/05/23 06:52:41;;;;;;;0.97;0.30;;;;;;;;;;4956281;28;20027;-76
2021/05/23 06:55:07;;;;;;;0.57;0.30;;;;;;;;;;4959986;28;20050;-75
2021/05/23 06:57:32;;;;;;;0.77;0.40;;;;;;;;;;4959831;28;20456;-75
2021/05/23 06:59:57;;;;;;;0.47;0.30;;;;;;;;;;4987815;28;20176;-75
2021/05/23 07:02:23;;;;;;;0.30;0.27;;;;;;;;;;4994951;28;20026;-75
2021/05/23 07:04:48;;;;;;;1.77;0.40;;;;;;;;;;4978771;28;20046;-75
2021/05/23 07:07:14;;;;;;;0.60;0.30;;;;;;;;;;4995033;28;20117;-75
2021/05/23 07:09:39;;;;;;;0.50;0.33;;;;;;;;;;4978947;28;20122;-75
2021/05/23 07:12:05;;;;;;;1.90;0.40;;;;;;;;;;4994768;28;20018;-76
2021/05/23 07:14:31;;;;;;;0.98;0.50;;;;;;;;;;4962540;28;20030;-76
2021/05/23 07:16:56;;;;;;;1.90;0.43;;;;;;;;;;4962588;28;20113;-75
2021/05/23 07:19:21;;;;;;;1.40;0.50;;;;;;;;;;4962317;28;20061;-75
2021/05/23 07:21:47;;;;;;;1.10;0.53;;;;;;;;;;4962364;28;20069;-75
2021/05/23 07:24:12;;;;;;;1.33;0.70;;;;;;;;;;4961879;28;20117;-76
2021/05/23 07:26:38;;;;;;;1.57;0.73;;;;;;;;;;4962593;28;20370;-76
2021/05/23 07:29:03;;;;;;;1.97;0.70;;;;;;;;;;4962324;28;20072;-75
2021/05/23 07:31:31;;;;;;;2.70;0.80;;;;;;;;;;4978428;28;20126;-76
2021/05/23 07:33:56;;;;;;;2.22;0.88;;;;;;;;;;4962622;28;20580;-75
2021/05/23 07:36:22;;;;;;;1.87;1.03;;;;;;;;;;4978105;28;20049;-76
2021/05/23 07:38:47;;;;;;;2.37;1.07;;;;;;;;;;4978522;28;20516;-75
2021/05/23 07:41:12;;;;;;;2.87;1.20;;;;;;;;;;4962564;28;20054;-75
2021/05/23 07:43:39;;;;;;;5.17;1.60;;;;;;;;;;4961770;28;20408;-75
2021/05/23 07:46:04;;;;;;;2.72;1.35;;;;;;;;;;4978564;28;20104;-75
2021/05/23 07:48:30;;;;;;;4.23;1.47;;;;;;;;;;4962129;28;20477;-75
2021/05/23 07:50:56;;;;;;;5.07;1.50;;;;;;;;;;4962081;28;20378;-76
2021/05/23 07:53:21;;;;;;;3.80;1.80;;;;;;;;;;4961438;28;20048;-76
2021/05/23 07:55:47;;;;;;;4.37;1.57;;;;;;;;;;4961166;28;20109;-76
2021/05/23 07:58:12;;;;;;;5.73;1.73;;;;;;;;;;4959922;28;20030;-75
2021/05/23 08:00:37;;;;;;;5.53;2.30;;;;;;;;;;4975683;28;20461;-77
2021/05/23 08:03:03;;;;;;;4.63;2.10;;;;;;;;;;4975684;28;20027;-78
2021/05/23 08:05:28;;;;;;;6.10;2.00;;;;;;;;;;4975738;28;20512;-75
2021/05/23 08:07:54;;;;;;;4.77;2.50;;;;;;;;;;4975660;28;20041;-75
2021/05/23 08:10:20;;;;;;;6.28;2.40;;;;;;;;;;4975201;28;20096;-76
2021/05/23 08:12:45;;;;;;;5.73;2.77;;;;;;;;;;4975733;28;20034;-77
2021/05/23 08:15:12;;;;;;;7.60;2.77;;;;;;;;;;4975780;28;20044;-77
2021/05/23 08:17:38;;;;;;;7.78;2.72;;;;;;;;;;4976002;28;20170;-75
2021/05/23 08:20:04;;;;;;;6.27;2.73;;;;;;;;;;4992192;28;20022;-76
2021/05/23 08:22:29;;;;;;;5.60;2.67;;;;;;;;;;4991594;28;20022;-75
2021/05/23 08:24:55;;;;;;;7.03;2.77;;;;;;;;;;4975657;28;20030;-76
2021/05/23 08:27:20;;;;;;;9.97;3.13;;;;;;;;;;4959369;28;20667;-76
2021/05/23 08:29:45;;;;;;;6.80;2.67;;;;;;;;;;4959533;28;20739;-77
2021/05/23 08:32:11;;;;;;;6.83;2.80;;;;;;;;;;4975741;28;20133;-77
2021/05/23 08:34:36;;;;;;;7.70;3.00;;;;;;;;;;4958922;28;20049;-77
2021/05/23 08:37:01;;;;;;;7.07;3.07;;;;;;;;;;4959627;28;20058;-76
2021/05/23 08:39:28;;;;;;;7.30;3.07;;;;;;;;;;4960884;28;20058;-76
2021/05/23 08:41:54;;;;;;;10.77;3.60;;;;;;;;;;4976924;28;20030;-76
2021/05/23 08:44:20;;;;;;;7.40;3.33;;;;;;;;;;4960757;28;20057;-76
2021/05/23 08:46:46;;;;;;;;;;;;;;;;;;4961339;28;20077;-76
2021/05/23 08:49:11;;;;;;;7.57;3.15;;;;;;;;;;4976908;28;19909;-76
2021/05/23 08:51:37;;;;;;;6.87;3.10;;;;;;;;;;4976672;28;20054;-77
2021/05/23 08:54:03;;;;;;;9.40;3.40;;;;;;;;;;4976985;28;20101;-77
2021/05/23 08:56:28;;;;;;;7.72;3.60;;;;;;;;;;4976921;28;20072;-76
2021/05/23 08:58:53;;;;;;;8.93;3.50;;;;;;;;;;4976697;28;20149;-76
2021/05/23 09:01:26;;;;;;;8.43;3.90;;;;;;;;;;4976889;28;20496;-76
2021/05/23 09:04:02;;;;;;;9.07;3.67;;;;;;;;;;4976402;28;20096;-76
2021/05/23 09:06:34;;;;;;;9.80;4.07;;;;;;;;;;4976230;28;20060;-76
2021/05/23 09:09:00;;;;;;;9.57;4.30;;;;;;;;;;4960710;28;20109;-76
2021/05/23 09:11:25;;;;;;;9.65;4.15;;;;;;;;;;4960339;28;20121;-76
2021/05/23 09:13:51;;;;;;;10.50;4.13;;;;;;;;;;4976478;28;20052;-76
2021/05/23 09:16:17;;;;;;;9.43;3.95;;;;;;;;;;4976475;28;20030;-77
2021/05/23 09:18:46;;;;;;;12.10;4.63;;;;;;;;;;4976593;28;20039;-76
2021/05/23 09:21:13;;;;;;;10.60;4.40;;;;;;;;;;4992585;28;20033;-76
2021/05/23 09:23:49;;;;;;;10.07;4.18;;;;;;;;;;4960092;28;20030;-76
2021/05/23 09:26:18;;;;;;;9.85;4.05;;;;;;;;;;4960132;28;20105;-76
2021/05/23 09:28:44;;;;;;;10.55;4.28;;;;;;;;;;4992617;28;20018;-76
2021/05/23 09:31:17;;;;;;;8.73;4.40;;;;;;;;;;4993604;28;20022;-76
2021/05/23 09:33:44;;;;;;;8.05;4.15;;;;;;;;;;4960159;28;20022;-76
2021/05/23 09:36:10;;;;;;;10.00;4.28;;;;;;;;;;4976301;28;20026;-76
2021/05/23 09:38:35;;;;;;;11.30;4.20;;;;;;;;;;4960257;28;20057;-76
2021/05/23 09:41:01;;;;;;;9.93;4.30;;;;;;;;;;4976385;28;20497;-76
2021/05/23 09:43:26;;;;;;;8.93;4.37;;;;;;;;;;4976140;28;20158;-76
2021/05/23 09:45:55;;;;;;;10.33;4.60;;;;;;;;;;4976015;28;20050;-76
2021/05/23 09:48:22;;;;;;;10.57;4.68;;;;;;;;;;4976069;28;20018;-77
2021/05/23 09:50:49;;;;;;;10.98;4.63;;;;;;;;;;4976320;28;20030;-76
2021/05/23 09:53:36;;;;;;;10.00;4.47;;;;;;;;;;4975803;28;20028;-76
2021/05/23 09:56:12;;;;;;;10.17;4.70;;;;;;;;;;4975042;28;20049;-85
2021/05/23 09:58:42;;;;;;;12.35;4.90;;;;;;;;;;4938657;28;20331;-77
2021/05/23 10:01:11;;;;;;;10.93;4.75;;;;;;;;;;4943585;28;20022;-76
2021/05/23 10:03:39;;;;;;;10.57;4.88;;;;;;;;;;4959437;28;20041;-77
2021/05/23 10:06:07;;;;;;;10.82;4.65;;;;;;;;;;4959737;28;20034;-76
2021/05/23 10:08:32;;;;;;;10.38;4.57;;;;;;;;;;4944160;28;20026;-76
2021/05/23 10:10:58;;;;;;;11.67;4.93;;;;;;;;;;4975809;28;20031;-78
2021/05/23 10:13:24;;;;;;;;;;;;;;;;;;4976507;28;20097;-77
2021/05/23 10:15:50;;;;;;;9.15;3.92;;;;;;;;;;4960176;28;19913;-76
2021/05/23 10:18:15;;;;;;;12.23;4.77;;;;;;;;;;4961524;28;20112;-76
2021/05/23 10:20:42;;;;;;;9.17;4.77;;;;;;;;;;4963590;28;20029;-76
2021/05/23 10:23:18;;;;;;;12.25;5.18;;;;;;;;;;4963805;28;20050;-76
2021/05/23 10:25:47;;;;;;;10.68;4.93;;;;;;;;;;4960538;28;20390;-76
2021/05/23 10:28:12;;;;;;;11.00;4.75;;;;;;;;;;4982601;28;20389;-76
2021/05/23 10:30:46;;;;;;;11.67;4.73;;;;;;;;;;4964126;28;20054;-76
2021/05/23 10:33:12;;;;;;;10.48;4.78;;;;;;;;;;4980618;28;20032;-76
2021/05/23 10:35:44;;;;;;;11.63;4.77;;;;;;;;;;4979602;28;20014;-78
2021/05/23 10:38:11;;;;;;;10.13;4.60;;;;;;;;;;4979512;28;20117;-76
2021/05/23 10:40:38;;;;;;;11.27;5.20;;;;;;;;;;4979245;28;20030;-76
2021/05/23 10:43:04;;;;;;;9.95;4.68;;;;;;;;;;4962966;28;20072;-76
2021/05/23 10:45:34;;;;;;;11.50;4.68;;;;;;;;;;4962975;28;20572;-76
2021/05/23 10:48:16;;;;;;;11.82;5.03;;;;;;;;;;4979236;28;20056;-76
2021/05/23 10:50:44;;;;;;;10.00;4.80;;;;;;;;;;4972385;28;20053;-76
2021/05/23 10:53:13;;;;;;;12.48;5.30;;;;;;;;;;4969337;28;20095;-77
2021/05/23 10:55:58;;;;;;;11.68;5.15;;;;;;;;;;4974705;28;20026;-76
2021/05/23 10:58:24;;;;;;;10.00;4.90;;;;;;;;;;4971939;28;20042;-76
2021/05/23 11:00:53;;;;;;;10.57;4.68;;;;;;;;;;4962804;28;20030;-76
2021/05/23 11:03:20;;;;;;;15.55;5.20;;;;;;;;;;4963015;28;20076;-75
2021/05/23 11:05:45;;;;;;;10.05;4.82;;;;;;;;;;4978956;28;20034;-76
2021/05/23 11:08:12;;;;;;;11.07;4.83;;;;;;;;;;4980632;23;20105;-77
2021/05/23 11:10:38;;;;;;;10.25;5.10;;;;;;;;;;4979358;28;20038;-77
2021/05/23 11:13:03;;;;;;;12.80;5.80;;;;;;;;;;4996673;28;20496;-77
2021/05/23 11:15:45;;;;;;;11.97;5.00;;;;;;;;;;4962860;28;20061;-77
2021/05/23 11:18:29;;;;;;;10.50;5.20;;;;;;;;;;4975876;28;20027;-78
2021/05/23 11:20:58;;;;;;;12.52;5.25;;;;;;;;;;4976205;28;20478;-77
2021/05/23 11:23:24;;;;;;;13.30;5.10;;;;;;;;;;4975944;28;20066;-77
2021/05/23 11:25:49;;;;;;;11.93;4.90;;;;;;;;;;4977658;28;20058;-77
2021/05/23 11:28:19;;;;;;;10.93;5.23;;;;;;;;;;4975423;28;20532;-78
2021/05/23 11:30:45;;;;;;;10.27;4.85;;;;;;;;;;4965243;28;20018;-78
2021/05/23 11:33:10;;;;;;;10.70;5.20;;;;;;;;;;4978734;28;20033;-77
2021/05/23 11:35:40;;;;;;;11.43;4.93;;;;;;;;;;4958947;28;20034;-77
2021/05/23 11:38:05;;;;;;;10.63;5.10;;;;;;;;;;4927534;28;20023;-77
2021/05/23 11:40:36;;;;;;;11.97;5.20;;;;;;;;;;4927088;28;20102;-77
2021/05/23 11:43:18;;;;;;;9.75;4.45;;;;;;;;;;4950280;28;20030;-77
2021/05/23 11:46:04;;;;;;;11.23;5.20;;;;;;;;;;4958796;28;20130;-77
2021/05/23 11:48:35;;;;;;;12.40;5.43;;;;;;;;;;4958568;28;20040;-77
2021/05/23 11:51:01;;;;;;;11.23;5.13;;;;;;;;;;4975889;28;20027;-77
2021/05/23 11:53:40;;;;;;;10.43;4.67;;;;;;;;;;4934432;28;20029;-77
2021/05/23 11:56:06;;;;;;;10.90;5.05;;;;;;;;;;4974653;28;20057;-77
2021/05/23 11:58:31;;;;;;;11.05;5.22;;;;;;;;;;4958653;28;20027;-76
2021/05/23 12:01:17;;;;;;;11.63;4.67;;;;;;;;;;4956782;28;20045;-77
2021/05/23 12:03:42;;;;;;;11.82;4.82;;;;;;;;;;4976363;28;20043;-77
2021/05/23 12:06:15;;;;;;;10.47;4.43;;;;;;;;;;4987109;28;20034;-78
2021/05/23 12:08:41;;;;;;;10.73;4.80;;;;;;;;;;4986839;28;20117;-77
2021/05/23 12:11:06;;;;;;;9.60;4.37;;;;;;;;;;4987233;28;20066;-77
2021/05/23 12:13:45;;;;;;;10.00;4.60;;;;;;;;;;4972021;28;20022;-78
2021/05/23 12:16:13;;;;;;;8.75;4.28;;;;;;;;;;4985196;28;20084;-78
2021/05/23 12:18:40;;;;;;;9.30;4.45;;;;;;;;;;5003454;28;20081;-77
2021/05/23 12:21:06;;;;;;;11.02;4.63;;;;;;;;;;5004529;28;20026;-76
2021/05/23 12:23:33;;;;;;;10.40;4.68;;;;;;;;;;4971653;28;20030;-77
2021/05/23 12:25:58;;;;;;;9.98;4.93;;;;;;;;;;4991070;28;20494;-79
2021/05/23 12:28:34;;;;;;;10.03;4.33;;;;;;;;;;4975316;28;20121;-81
2021/05/23 12:31:00;;;;;;;9.95;4.70;;;;;;;;;;4958588;28;20442;-80
2021/05/23 12:33:25;;;;;;;10.25;4.63;;;;;;;;;;4957842;28;20023;-80
2021/05/23 12:35:51;;;;;;;11.43;4.90;;;;;;;;;;4944492;28;20498;-79
2021/05/23 12:38:16;;;;;;;9.50;4.37;;;;;;;;;;4993684;28;20076;-79
2021/05/23 12:40:49;;;;;;;10.53;4.30;;;;;;;;;;4980764;28;20493;-79
2021/05/23 12:43:24;;;;;;;10.85;4.72;;;;;;;;;;4977593;28;20026;-77
2021/05/23 12:45:50;;;;;;;8.73;4.22;;;;;;;;;;4975088;28;20026;-79
2021/05/23 12:48:15;;;;;;;10.07;4.40;;;;;;;;;;4975884;28;20023;-78
2021/05/23 12:50:41;;;;;;;8.07;4.07;;;;;;;;;;4979151;28;20206;-78
2021/05/23 12:53:08;;;;;;;9.18;4.35;;;;;;;;;;4957412;28;20034;-77
2021/05/23 12:55:38;;;;;;;10.02;4.40;;;;;;;;;;4961155;28;20019;-78
2021/05/23 12:58:03;;;;;;;9.27;4.20;;;;;;;;;;4936124;28;20379;-79
2021/05/23 13:00:28;;;;;;;10.60;4.33;;;;;;;;;;4926403;28;20054;-78
2021/05/23 13:03:04;;;;;;;9.20;4.50;;;;;;;;;;4959385;28;20033;-78
2021/05/23 13:05:30;;;;;;;8.85;4.22;;;;;;;;;;4940562;28;20034;-77
2021/05/23 13:07:55;;;;;;;10.67;4.30;;;;;;;;;;4950539;28;20061;-77
2021/05/23 13:10:20;;;;;;;8.87;4.00;;;;;;;;;;4970096;28;20484;-77
2021/05/23 13:12:46;;;;;;;8.43;3.90;;;;;;;;;;4963493;28;20097;-78
2021/05/23 13:15:13;;;;;;;9.43;3.83;;;;;;;;;;4940777;28;20077;-77
2021/05/23 13:17:42;;;;;;;11.18;4.25;;;;;;;;;;4953470;28;20042;-79
2021/05/23 13:20:11;;;;;;;7.57;3.83;;;;;;;;;;4986073;28;20041;-78
2021/05/23 13:22:36;;;;;;;8.82;3.92;;;;;;;;;;4990508;28;20045;-79
2021/05/23 13:25:05;;;;;;;8.57;4.03;;;;;;;;;;4958595;28;20081;-78
2021/05/23 13:27:30;;;;;;;9.77;3.88;;;;;;;;;;4978854;28;20027;-80
2021/05/23 13:29:55;;;;;;;8.63;3.93;;;;;;;;;;4965046;28;20161;-78
2021/05/23 13:32:21;;;;;;;9.67;4.23;;;;;;;;;;4938862;28;20433;-78
2021/05/23 13:34:46;;;;;;;6.80;3.73;;;;;;;;;;4979353;28;20064;-78
2021/05/23 13:37:12;;;;;;;7.57;3.43;;;;;;;;;;4975150;28;20074;-78
2021/05/23 13:39:37;;;;;;;8.47;3.70;;;;;;;;;;4978144;28;20128;-79
2021/05/23 13:42:03;;;;;;;8.53;3.87;;;;;;;;;;4975674;28;20046;-78
2021/05/23 13:44:28;;;;;;;7.33;3.67;;;;;;;;;;4973875;28;20045;-78
2021/05/23 13:46:54;;;;;;;8.80;3.70;;;;;;;;;;4941377;28;20051;-78
2021/05/23 13:49:19;;;;;;;7.90;3.73;;;;;;;;;;4939837;28;20050;-78
2021/05/23 13:51:45;;;;;;;6.77;3.50;;;;;;;;;;4928813;28;20026;-78
2021/05/23 13:54:11;;;;;;;7.97;3.92;;;;;;;;;;4985283;28;20149;-79
2021/05/23 13:56:36;;;;;;;7.38;3.65;;;;;;;;;;4980875;28;20030;-78
2021/05/23 13:59:05;;;;;;;8.17;3.97;;;;;;;;;;4997020;28;20038;-78
2021/05/23 14:01:31;;;;;;;6.85;3.35;;;;;;;;;;4968639;28;20026;-78
2021/05/23 14:03:56;;;;;;;8.97;3.57;;;;;;;;;;4994732;28;20026;-78
2021/05/23 14:06:21;;;;;;;8.50;3.80;;;;;;;;;;4980252;28;20726;-79
2021/05/23 14:08:47;;;;;;;6.73;3.40;;;;;;;;;;5013057;28;20026;-79
2021/05/23 14:11:12;;;;;;;9.37;3.60;;;;;;;;;;5013522;28;20083;-77
2021/05/23 14:13:37;;;;;;;8.07;3.23;;;;;;;;;;4995200;28;20057;-80
2021/05/23 14:16:04;;;;;;;6.93;3.20;;;;;;;;;;4992058;28;20042;-80
2021/05/23 14:18:29;;;;;;;8.75;3.53;;;;;;;;;;4929391;28;20034;-77
2021/05/23 14:20:56;;;;;;;7.47;3.10;;;;;;;;;;4973787;28;20022;-78
2021/05/23 14:23:21;;;;;;;8.15;3.42;;;;;;;;;;4931975;28;20030;-78
2021/05/23 14:25:47;;;;;;;8.23;3.63;;;;;;;;;;4960775;28;20471;-80
2021/05/23 14:28:12;;;;;;;6.37;3.13;;;;;;;;;;4942920;28;20118;-78
2021/05/23 14:30:37;;;;;;;6.97;3.20;;;;;;;;;;4968729;28;20497;-79
2021/05/23 14:33:03;;;;;;;8.23;3.57;;;;;;;;;;4951327;28;20054;-79
2021/05/23 14:35:29;;;;;;;6.97;3.20;;;;;;;;;;4944490;28;20021;-80
2021/05/23 14:37:54;;;;;;;7.63;3.17;;;;;;;;;;4928685;28;20030;-80